Terminal Aerodrome Forecast
Issued by NWS Wichita, KS

Home | Current Version | Previous Version | Text Only | Print | Product List | Glossary On
Versions: 1 2 3 4 5 6 7 8 9 10 11 12
000
FTUS43 KICT 031135
TAFICT
TAF
KICT 031135Z 0312/0412 16012KT P6SM SCT150
     FM031500 18015G20KT P6SM SCT150
     FM031800 18018G25KT P6SM FEW120
     FM040100 16012KT P6SM SCT150=

USA.gov is the U.S. government's official web portal to all federal, state and local government web resources and services.